Time;durP1;ratioP1;P1;durP2;ratioP2;P2;SDS_P1;SDS_P2;PMS_P1;PMS_P2;Temp;Humidity;BMP_temperature;BMP_pressure;BME280_temperature;BME280_humidity;BME280_pressure;Samples;Min_cycle;Max_cycle;Signal;HPM_P1;HPM_P2
2021/12/14 00:01:40;;;;;;;6.93;3.53;;;;;;;;;;4930972;29;20587;-71
2021/12/14 00:04:45;;;;;;;9.57;3.90;;;;;;;;;;4919624;29;20189;-71
2021/12/14 00:07:49;;;;;;;14.67;3.87;;;;;;;;;;4926097;29;20207;-71
2021/12/14 00:17:29;;;;;;;9.37;3.70;;;;;;;;;;4921506;29;20188;-71
2021/12/14 00:20:52;;;;;;;7.07;3.40;;;;;;;;;;4938007;29;20185;-71
2021/12/14 00:24:06;;;;;;;53.57;5.60;;;;;;;;;;4919377;29;20193;-71
2021/12/14 00:27:12;;;;;;;13.90;3.40;;;;;;;;;;4919504;29;20213;-71
2021/12/14 00:30:17;;;;;;;8.40;3.23;;;;;;;;;;4918400;29;20185;-71
2021/12/14 00:33:25;;;;;;;6.83;2.90;;;;;;;;;;4919311;29;20216;-71
2021/12/14 00:36:29;;;;;;;7.80;2.53;;;;;;;;;;4935960;29;20542;-71
2021/12/14 00:39:35;;;;;;;7.07;2.60;;;;;;;;;;4937031;29;20212;-71
2021/12/14 00:42:40;;;;;;;4.47;2.53;;;;;;;;;;4920861;29;20229;-71
2021/12/14 00:45:46;;;;;;;4.67;2.30;;;;;;;;;;4929231;29;20189;-71
2021/12/14 00:48:52;;;;;;;3.97;2.23;;;;;;;;;;4918768;29;20192;-71
2021/12/14 00:51:56;;;;;;;4.90;2.83;;;;;;;;;;4927002;29;20216;-71
2021/12/14 00:55:04;;;;;;;10.37;2.63;;;;;;;;;;4919298;29;20666;-71
2021/12/14 00:58:08;;;;;;;8.37;2.63;;;;;;;;;;4918950;29;20201;-71
2021/12/14 01:01:47;;;;;;;5.03;2.67;;;;;;;;;;4914057;29;20224;-71
2021/12/14 01:04:56;;;;;;;4.30;2.50;;;;;;;;;;4952106;28;20188;-71
2021/12/14 01:08:02;;;;;;;4.47;2.70;;;;;;;;;;4912346;29;20205;-71
2021/12/14 01:11:21;;;;;;;11.97;2.57;;;;;;;;;;4930568;29;20220;-71
2021/12/14 01:14:39;;;;;;;12.50;3.23;;;;;;;;;;4928641;29;20528;-71
2021/12/14 01:18:00;;;;;;;5.67;3.00;;;;;;;;;;4918673;29;20201;-71
2021/12/14 01:21:19;;;;;;;6.67;2.80;;;;;;;;;;4923081;29;20208;-71
2021/12/14 01:28:05;;;;;;;8.07;3.13;;;;;;;;;;4945787;29;20212;-71
2021/12/14 01:31:26;;;;;;;10.23;2.90;;;;;;;;;;4930648;29;20224;-71
2021/12/14 01:34:32;;;;;;;12.00;3.20;;;;;;;;;;4917280;29;20189;-71
2021/12/14 01:37:42;;;;;;;9.03;3.47;;;;;;;;;;4921799;29;20196;-71
2021/12/14 01:40:53;;;;;;;10.17;2.83;;;;;;;;;;4931559;29;20698;-71
2021/12/14 01:44:03;;;;;;;10.10;2.63;;;;;;;;;;4906225;29;20213;-71
2021/12/14 01:47:20;;;;;;;15.27;3.73;;;;;;;;;;4917040;29;20181;-71
2021/12/14 01:51:03;;;;;;;8.17;3.17;;;;;;;;;;4917225;29;20208;-71
2021/12/14 01:54:20;;;;;;;7.33;3.37;;;;;;;;;;4917832;29;20193;-71
2021/12/14 01:57:29;;;;;;;7.80;3.60;;;;;;;;;;4917014;29;20193;-71
2021/12/14 02:00:47;;;;;;;9.27;3.60;;;;;;;;;;4907734;29;20232;-71
2021/12/14 02:03:56;;;;;;;10.60;4.20;;;;;;;;;;4926691;29;20213;-71
2021/12/14 02:07:04;;;;;;;9.23;3.40;;;;;;;;;;4905841;29;20185;-71
2021/12/14 02:10:14;;;;;;;6.97;3.27;;;;;;;;;;4916843;29;20185;-71
2021/12/14 02:13:29;;;;;;;8.50;3.40;;;;;;;;;;4917355;29;20208;-71
2021/12/14 02:16:34;;;;;;;7.10;3.10;;;;;;;;;;4916503;29;20618;-71
2021/12/14 02:19:39;;;;;;;9.27;3.47;;;;;;;;;;4916515;29;20212;-71
2021/12/14 02:22:44;;;;;;;8.70;2.90;;;;;;;;;;4931177;29;20220;-71
2021/12/14 02:25:49;;;;;;;6.03;2.77;;;;;;;;;;4922143;29;20559;-71
2021/12/14 02:28:54;;;;;;;6.43;3.10;;;;;;;;;;4916361;29;20185;-71
2021/12/14 02:32:10;;;;;;;5.73;2.63;;;;;;;;;;4930216;29;20236;-71
2021/12/14 02:35:19;;;;;;;7.73;2.20;;;;;;;;;;4916336;29;20532;-71
2021/12/14 02:38:24;;;;;;;4.30;2.63;;;;;;;;;;4931815;29;20208;-71
2021/12/14 02:41:28;;;;;;;6.00;2.80;;;;;;;;;;4922295;29;20220;-71
2021/12/14 02:44:32;;;;;;;7.17;3.27;;;;;;;;;;4934856;29;20208;-71
2021/12/14 02:47:37;;;;;;;9.00;3.00;;;;;;;;;;4924508;29;20201;-71
2021/12/14 02:50:43;;;;;;;7.80;3.30;;;;;;;;;;4923239;29;20224;-71
2021/12/14 02:53:52;;;;;;;6.67;3.13;;;;;;;;;;4905581;29;20200;-71
2021/12/14 02:57:03;;;;;;;8.97;4.23;;;;;;;;;;4917642;29;20181;-71
2021/12/14 03:00:13;;;;;;;6.80;4.03;;;;;;;;;;4922571;29;20232;-71
2021/12/14 03:03:19;;;;;;;8.40;4.30;;;;;;;;;;4939192;29;20196;-71
2021/12/14 03:06:25;;;;;;;6.80;3.60;;;;;;;;;;4931570;29;20205;-71
2021/12/14 03:09:52;;;;;;;6.87;3.57;;;;;;;;;;4929647;29;20204;-71
2021/12/14 03:12:57;;;;;;;5.60;3.10;;;;;;;;;;4933152;29;20192;-71
2021/12/14 03:16:07;;;;;;;7.77;3.60;;;;;;;;;;4922163;29;20192;-71
2021/12/14 03:19:11;;;;;;;8.00;4.10;;;;;;;;;;4925187;29;20213;-71
2021/12/14 03:22:27;;;;;;;8.93;3.93;;;;;;;;;;4925889;29;20586;-71
2021/12/14 03:25:33;;;;;;;9.17;4.50;;;;;;;;;;4941214;29;20189;-71
2021/12/14 03:28:39;;;;;;;11.70;4.47;;;;;;;;;;4941087;29;20530;-71
2021/12/14 03:31:46;;;;;;;8.20;4.47;;;;;;;;;;4940044;29;20712;-71
2021/12/14 03:34:57;;;;;;;9.63;4.70;;;;;;;;;;4930790;29;20197;-71
2021/12/14 03:38:09;;;;;;;11.03;3.80;;;;;;;;;;4940971;29;20562;-71
2021/12/14 03:41:21;;;;;;;7.40;3.97;;;;;;;;;;4926597;29;20240;-71
2021/12/14 03:44:32;;;;;;;9.90;4.70;;;;;;;;;;4922023;29;20197;-71
2021/12/14 03:47:50;;;;;;;8.17;4.80;;;;;;;;;;4933599;29;20196;-71
2021/12/14 03:50:57;;;;;;;9.97;5.13;;;;;;;;;;4927859;29;20216;-71
2021/12/14 03:54:02;;;;;;;11.47;5.40;;;;;;;;;;4922050;29;20197;-71
2021/12/14 03:57:07;;;;;;;10.17;5.70;;;;;;;;;;4922927;29;20180;-71
2021/12/14 04:00:17;;;;;;;10.50;5.37;;;;;;;;;;4922843;29;20209;-71
2021/12/14 04:03:27;;;;;;;10.00;5.00;;;;;;;;;;4923166;29;20208;-71
2021/12/14 04:07:00;;;;;;;10.70;5.53;;;;;;;;;;4921843;29;20185;-71
2021/12/14 04:10:09;;;;;;;13.50;5.73;;;;;;;;;;4915748;29;20538;-71
2021/12/14 04:13:18;;;;;;;8.93;4.80;;;;;;;;;;4933371;29;20205;-71
2021/12/14 04:16:24;;;;;;;11.00;5.13;;;;;;;;;;4921388;29;20204;-71
2021/12/14 04:19:31;;;;;;;10.97;6.03;;;;;;;;;;4937286;29;20216;-71
2021/12/14 04:22:37;;;;;;;13.73;5.73;;;;;;;;;;4935365;29;20219;-71
2021/12/14 04:25:42;;;;;;;10.23;5.70;;;;;;;;;;4918500;29;20201;-71
2021/12/14 04:28:54;;;;;;;12.87;6.77;;;;;;;;;;4935005;29;20553;-71
2021/12/14 04:31:59;;;;;;;11.07;6.17;;;;;;;;;;4919336;29;20717;-71
2021/12/14 04:35:06;;;;;;;11.87;6.00;;;;;;;;;;4924798;29;20192;-71
2021/12/14 04:38:21;;;;;;;26.83;7.20;;;;;;;;;;4931709;29;20184;-71
2021/12/14 04:51:58;;;;;;;11.67;5.90;;;;;;;;;;4930326;29;20224;-71
2021/12/14 04:55:10;;;;;;;27.00;6.23;;;;;;;;;;4911763;29;20196;-71
2021/12/14 04:58:26;;;;;;;10.40;5.50;;;;;;;;;;4936691;29;20535;-71
2021/12/14 05:01:37;;;;;;;10.57;5.23;;;;;;;;;;4936730;29;20227;-71
2021/12/14 05:04:42;;;;;;;11.07;5.27;;;;;;;;;;4924865;29;20669;-71
2021/12/14 05:11:22;;;;;;;16.67;5.73;;;;;;;;;;4917713;29;20640;-71
2021/12/14 05:14:29;;;;;;;27.67;5.80;;;;;;;;;;4932236;29;20204;-71
2021/12/14 05:17:37;;;;;;;31.10;6.03;;;;;;;;;;4936585;29;20212;-71
2021/12/14 05:20:44;;;;;;;28.03;5.77;;;;;;;;;;4925270;29;20236;-71
2021/12/14 05:23:51;;;;;;;38.10;6.77;;;;;;;;;;4924097;29;20208;-71
2021/12/14 05:27:03;;;;;;;25.53;6.00;;;;;;;;;;4917085;29;20922;-71
2021/12/14 05:30:28;;;;;;;38.90;6.33;;;;;;;;;;4911938;29;20184;-70
2021/12/14 05:33:58;;;;;;;50.60;6.80;;;;;;;;;;4923970;29;20213;-70
2021/12/14 05:37:11;;;;;;;28.97;5.27;;;;;;;;;;4927133;29;20955;-70
2021/12/14 05:43:43;;;;;;;56.50;5.50;;;;;;;;;;4916538;29;20605;-70
2021/12/14 05:46:59;;;;;;;49.63;6.23;;;;;;;;;;4935999;29;20553;-70
2021/12/14 05:50:17;;;;;;;7.10;4.57;;;;;;;;;;4909077;29;20581;-73
2021/12/14 05:53:34;;;;;;;9.23;5.07;;;;;;;;;;4928173;29;20975;-73
2021/12/14 05:56:38;;;;;;;40.87;5.57;;;;;;;;;;4917168;29;20892;-73
2021/12/14 05:59:43;;;;;;;50.37;5.80;;;;;;;;;;4916797;29;20908;-73
2021/12/14 06:02:48;;;;;;;32.47;4.73;;;;;;;;;;4917023;29;20600;-72
2021/12/14 06:05:56;;;;;;;44.30;5.50;;;;;;;;;;4905769;29;20553;-73
2021/12/14 06:09:15;;;;;;;14.43;4.10;;;;;;;;;;4933743;29;20596;-73
2021/12/14 06:12:32;;;;;;;11.80;4.67;;;;;;;;;;4925489;29;20608;-74
2021/12/14 06:15:36;;;;;;;35.40;4.70;;;;;;;;;;4916003;29;20621;-73
2021/12/14 06:18:51;;;;;;;19.73;5.00;;;;;;;;;;4927630;29;20619;-72
2021/12/14 06:22:12;;;;;;;10.53;4.80;;;;;;;;;;4924380;29;20962;-73
2021/12/14 06:25:20;;;;;;;11.63;4.43;;;;;;;;;;4916344;29;20558;-73
2021/12/14 06:28:27;;;;;;;14.50;4.90;;;;;;;;;;4905768;29;20601;-72
2021/12/14 06:31:31;;;;;;;12.43;4.50;;;;;;;;;;4927643;29;20644;-73
2021/12/14 06:34:42;;;;;;;12.43;5.27;;;;;;;;;;4918885;29;20592;-73
2021/12/14 06:38:26;;;;;;;12.87;4.60;;;;;;;;;;4900588;29;20569;-72
2021/12/14 06:41:31;;;;;;;24.43;6.13;;;;;;;;;;4918995;29;20675;-72
2021/12/14 06:44:37;;;;;;;14.60;7.13;;;;;;;;;;4915474;29;20609;-72
2021/12/14 06:47:42;;;;;;;42.30;22.80;;;;;;;;;;4923827;29;20618;-72
2021/12/14 06:50:58;;;;;;;17.07;6.10;;;;;;;;;;4931533;29;20627;-73
2021/12/14 06:54:27;;;;;;;9.47;5.27;;;;;;;;;;4924030;29;20609;-73
2021/12/14 06:57:50;;;;;;;13.00;5.13;;;;;;;;;;4913434;29;20900;-70
2021/12/14 07:01:11;;;;;;;8.20;5.40;;;;;;;;;;4920130;29;21255;-69
2021/12/14 07:04:20;;;;;;;15.03;4.90;;;;;;;;;;4923755;29;21177;-72
2021/12/14 07:07:27;;;;;;;9.97;5.77;;;;;;;;;;4924762;29;20927;-71
2021/12/14 07:10:35;;;;;;;11.87;6.30;;;;;;;;;;4933725;29;20954;-72
2021/12/14 07:13:41;;;;;;;14.60;7.17;;;;;;;;;;4935538;29;20557;-72
2021/12/14 07:16:47;;;;;;;11.70;6.63;;;;;;;;;;4935457;29;20553;-72
2021/12/14 07:19:55;;;;;;;11.40;7.53;;;;;;;;;;4934553;29;20548;-72
2021/12/14 07:23:20;;;;;;;11.80;6.70;;;;;;;;;;4927421;29;20578;-72
2021/12/14 07:26:25;;;;;;;20.10;6.20;;;;;;;;;;4916488;29;20557;-72
2021/12/14 07:29:28;;;;;;;10.30;6.13;;;;;;;;;;4916404;29;21102;-72
2021/12/14 07:33:01;;;;;;;9.37;5.77;;;;;;;;;;4916447;29;20655;-72
2021/12/14 07:36:07;;;;;;;11.60;6.30;;;;;;;;;;4909853;29;20628;-72
2021/12/14 07:39:14;;;;;;;9.33;6.00;;;;;;;;;;4916396;29;21122;-72
2021/12/14 07:42:18;;;;;;;10.97;6.43;;;;;;;;;;4915332;29;20657;-71
2021/12/14 07:45:36;;;;;;;8.77;4.70;;;;;;;;;;4915471;29;20561;-72
2021/12/14 07:48:48;;;;;;;13.40;7.50;;;;;;;;;;4916478;29;20553;-72
2021/12/14 07:51:58;;;;;;;10.30;6.03;;;;;;;;;;4908157;29;21185;-72
2021/12/14 07:55:11;;;;;;;8.13;5.30;;;;;;;;;;4919733;29;20190;-71
2021/12/14 07:58:15;;;;;;;9.57;5.80;;;;;;;;;;4919710;29;20550;-71
2021/12/14 08:01:20;;;;;;;11.70;8.80;;;;;;;;;;4919443;29;20656;-71
2021/12/14 08:04:33;;;;;;;52.27;28.70;;;;;;;;;;4919611;29;20701;-72
2021/12/14 08:07:41;;;;;;;39.83;23.07;;;;;;;;;;4918820;29;20562;-72
2021/12/14 08:14:27;;;;;;;11.17;7.40;;;;;;;;;;4915314;29;20620;-72
2021/12/14 08:17:31;;;;;;;19.77;12.90;;;;;;;;;;4918591;29;20557;-72
2021/12/14 08:20:45;;;;;;;21.50;14.57;;;;;;;;;;4918311;29;20651;-71
2021/12/14 08:23:55;;;;;;;11.00;6.60;;;;;;;;;;4919246;29;20564;-71
2021/12/14 08:27:01;;;;;;;12.73;8.53;;;;;;;;;;4919177;29;20545;-71
2021/12/14 08:30:10;;;;;;;15.70;10.43;;;;;;;;;;4907548;29;20557;-71
2021/12/14 08:33:23;;;;;;;11.10;7.77;;;;;;;;;;4919000;29;20620;-71
2021/12/14 08:36:40;;;;;;;11.40;7.40;;;;;;;;;;4918991;29;20565;-71
2021/12/14 08:39:51;;;;;;;21.60;14.17;;;;;;;;;;4918990;29;20884;-71
2021/12/14 08:43:03;;;;;;;15.00;11.10;;;;;;;;;;4918921;29;20557;-72
2021/12/14 08:46:13;;;;;;;14.57;10.47;;;;;;;;;;4918098;29;20561;-72
2021/12/14 08:49:20;;;;;;;18.83;11.37;;;;;;;;;;4917938;29;20612;-72
2021/12/14 08:52:25;;;;;;;13.50;8.83;;;;;;;;;;4918721;29;20628;-72
2021/12/14 08:55:33;;;;;;;13.50;8.60;;;;;;;;;;4917978;29;20557;-71
2021/12/14 08:58:38;;;;;;;11.00;7.00;;;;;;;;;;4919020;29;20550;-71
2021/12/14 09:01:47;;;;;;;10.27;7.13;;;;;;;;;;4936784;29;20651;-71
2021/12/14 09:04:56;;;;;;;49.53;26.10;;;;;;;;;;4937519;29;20549;-71
2021/12/14 09:08:02;;;;;;;12.73;8.90;;;;;;;;;;4937465;29;21266;-71
2021/12/14 09:11:09;;;;;;;15.60;9.50;;;;;;;;;;4936606;29;20616;-71
2021/12/14 09:14:15;;;;;;;29.43;15.07;;;;;;;;;;4936495;29;20596;-72
2021/12/14 09:17:22;;;;;;;50.07;25.30;;;;;;;;;;4937304;29;20611;-72
2021/12/14 09:20:31;;;;;;;17.67;10.43;;;;;;;;;;4937482;29;20552;-72
2021/12/14 09:23:38;;;;;;;14.80;10.27;;;;;;;;;;4937247;29;20552;-72
2021/12/14 09:26:48;;;;;;;11.33;7.47;;;;;;;;;;4919929;29;20199;-72
2021/12/14 09:29:53;;;;;;;10.80;7.37;;;;;;;;;;4937045;29;20553;-72
2021/12/14 09:32:58;;;;;;;12.73;8.83;;;;;;;;;;4917856;29;20955;-72
2021/12/14 09:36:11;;;;;;;28.07;20.60;;;;;;;;;;4917059;29;20558;-70
2021/12/14 09:39:20;;;;;;;21.07;12.80;;;;;;;;;;4920214;29;20604;-69
2021/12/14 09:42:28;;;;;;;14.90;9.80;;;;;;;;;;4916017;29;20268;-70
2021/12/14 09:45:43;;;;;;;34.87;22.97;;;;;;;;;;4917929;29;20600;-70
2021/12/14 09:48:53;;;;;;;22.90;15.07;;;;;;;;;;4935322;29;20211;-70
2021/12/14 09:52:04;;;;;;;21.60;14.03;;;;;;;;;;4928013;29;21134;-69
2021/12/14 09:55:16;;;;;;;21.20;13.43;;;;;;;;;;4926954;29;20593;-70
2021/12/14 09:58:26;;;;;;;14.00;8.53;;;;;;;;;;4935830;29;20201;-70
2021/12/14 10:01:40;;;;;;;13.20;7.83;;;;;;;;;;4936394;29;20655;-70
2021/12/14 10:04:50;;;;;;;13.40;8.73;;;;;;;;;;4917161;29;20181;-70
2021/12/14 10:07:57;;;;;;;27.27;19.57;;;;;;;;;;4917969;29;20192;-70
2021/12/14 10:11:08;;;;;;;21.47;9.67;;;;;;;;;;4916332;29;20220;-70
2021/12/14 10:14:12;;;;;;;17.30;9.87;;;;;;;;;;4936190;29;20185;-70
2021/12/14 10:17:19;;;;;;;24.90;11.63;;;;;;;;;;4934746;29;20935;-70
2021/12/14 10:20:30;;;;;;;45.67;11.47;;;;;;;;;;4917206;29;20185;-71
2021/12/14 10:23:37;;;;;;;44.67;16.90;;;;;;;;;;4924165;29;20208;-70
2021/12/14 10:26:47;;;;;;;36.60;13.90;;;;;;;;;;4914249;29;20215;-71
2021/12/14 10:29:52;;;;;;;43.13;27.43;;;;;;;;;;4935325;29;20204;-70
2021/12/14 10:32:59;;;;;;;71.83;17.87;;;;;;;;;;4935967;29;20687;-71
2021/12/14 10:36:23;;;;;;;38.40;13.50;;;;;;;;;;4946313;29;20552;-72
2021/12/14 10:43:25;;;;;;;35.67;12.80;;;;;;;;;;4935475;29;20729;-71
2021/12/14 10:46:18;;;;;;;22.53;13.23;;;;;;;;;;4941296;29;20201;-73
2021/12/14 10:49:24;;;;;;;37.23;14.33;;;;;;;;;;4923632;29;20604;-72
2021/12/14 10:52:30;;;;;;;24.13;13.43;;;;;;;;;;4914808;29;20220;-72
2021/12/14 10:55:39;;;;;;;31.67;15.03;;;;;;;;;;4932482;29;20199;-72
2021/12/14 10:58:48;;;;;;;28.60;13.30;;;;;;;;;;4933938;29;20219;-71
2021/12/14 11:01:53;;;;;;;21.50;11.13;;;;;;;;;;4934098;29;20605;-75
2021/12/14 11:04:59;;;;;;;23.30;12.50;;;;;;;;;;4918340;29;20677;-75
2021/12/14 11:08:10;;;;;;;22.17;12.07;;;;;;;;;;4921392;29;20196;-75
2021/12/14 11:11:51;;;;;;;38.63;24.50;;;;;;;;;;4934727;29;20233;-75
2021/12/14 11:15:04;;;;;;;20.77;12.63;;;;;;;;;;4919795;29;20209;-75
2021/12/14 11:18:15;;;;;;;31.13;11.47;;;;;;;;;;4915722;29;20200;-75
2021/12/14 11:21:22;;;;;;;23.80;11.53;;;;;;;;;;4915581;29;20347;-75
2021/12/14 11:24:34;;;;;;;16.70;9.63;;;;;;;;;;4917991;29;20701;-75
2021/12/14 11:27:42;;;;;;;17.93;9.57;;;;;;;;;;4925514;29;20608;-75
2021/12/14 11:30:52;;;;;;;16.80;9.60;;;;;;;;;;4927459;29;20223;-75
2021/12/14 11:34:03;;;;;;;27.70;9.03;;;;;;;;;;4920202;29;20208;-75
2021/12/14 11:37:14;;;;;;;22.07;9.20;;;;;;;;;;4920071;29;20188;-75
2021/12/14 11:40:21;;;;;;;15.53;9.03;;;;;;;;;;4928856;29;20200;-74
2021/12/14 11:43:29;;;;;;;14.63;8.93;;;;;;;;;;4939360;29;20224;-75
2021/12/14 11:46:56;;;;;;;16.50;9.90;;;;;;;;;;4920057;29;20201;-75
2021/12/14 11:50:19;;;;;;;17.07;10.10;;;;;;;;;;4920005;29;20189;-75
2021/12/14 11:53:24;;;;;;;15.50;10.20;;;;;;;;;;4932217;29;20201;-75
2021/12/14 11:56:31;;;;;;;19.17;12.07;;;;;;;;;;4938069;29;20204;-75
2021/12/14 11:59:35;;;;;;;18.90;10.47;;;;;;;;;;4934540;29;20200;-75
2021/12/14 12:02:40;;;;;;;17.77;10.13;;;;;;;;;;4919693;29;20239;-73
2021/12/14 12:06:05;;;;;;;17.20;10.47;;;;;;;;;;4930152;29;20201;-73
2021/12/14 12:12:40;;;;;;;12.33;7.87;;;;;;;;;;4922346;29;20216;-74
2021/12/14 12:15:45;;;;;;;25.93;9.57;;;;;;;;;;4926138;29;20793;-74
2021/12/14 12:19:14;;;;;;;32.67;10.40;;;;;;;;;;4916221;29;20650;-73
2021/12/14 12:22:19;;;;;;;28.83;10.30;;;;;;;;;;4926116;29;20732;-73
2021/12/14 12:25:43;;;;;;;38.43;10.30;;;;;;;;;;4920331;29;20204;-73
2021/12/14 12:28:50;;;;;;;14.43;9.23;;;;;;;;;;4925207;29;20201;-73
2021/12/14 12:32:06;;;;;;;30.07;10.20;;;;;;;;;;4915757;29;20220;-73
2021/12/14 12:35:30;;;;;;;66.57;11.63;;;;;;;;;;4929157;29;20200;-73
2021/12/14 12:38:52;;;;;;;19.87;11.27;;;;;;;;;;4921015;29;20688;-73
2021/12/14 12:42:01;;;;;;;19.67;10.93;;;;;;;;;;4925835;29;20236;-73
2021/12/14 12:45:31;;;;;;;16.73;10.33;;;;;;;;;;4919351;29;20202;-74
2021/12/14 12:48:50;;;;;;;16.77;10.60;;;;;;;;;;4934195;29;20192;-73
2021/12/14 12:52:03;;;;;;;20.63;9.77;;;;;;;;;;4915454;29;20239;-72
2021/12/14 12:55:11;;;;;;;18.10;9.63;;;;;;;;;;4919160;29;20196;-73
2021/12/14 12:58:17;;;;;;;16.67;9.17;;;;;;;;;;4915018;29;20204;-73
2021/12/14 13:01:22;;;;;;;15.53;8.60;;;;;;;;;;4919386;29;20231;-72
2021/12/14 13:04:44;;;;;;;15.93;9.30;;;;;;;;;;4928749;29;20201;-73
2021/12/14 13:07:54;;;;;;;19.43;10.10;;;;;;;;;;4914862;29;20197;-73
2021/12/14 13:11:00;;;;;;;19.73;9.00;;;;;;;;;;4903374;29;20225;-73
2021/12/14 13:14:08;;;;;;;16.83;9.70;;;;;;;;;;4932168;29;20204;-73
2021/12/14 13:17:17;;;;;;;19.60;9.90;;;;;;;;;;4923254;29;20196;-72
2021/12/14 13:20:29;;;;;;;19.67;9.80;;;;;;;;;;4934224;29;20200;-72
2021/12/14 13:23:43;;;;;;;14.37;8.50;;;;;;;;;;4930686;29;20693;-74
2021/12/14 13:27:07;;;;;;;13.43;8.20;;;;;;;;;;4929543;29;20196;-74
2021/12/14 13:30:11;;;;;;;12.43;8.13;;;;;;;;;;4933877;29;20188;-74
2021/12/14 13:33:27;;;;;;;20.53;8.67;;;;;;;;;;4925989;29;20216;-74
2021/12/14 13:36:31;;;;;;;14.07;8.43;;;;;;;;;;4914554;29;20209;-75
2021/12/14 13:39:37;;;;;;;14.33;9.13;;;;;;;;;;4914896;29;20200;-74
2021/12/14 13:42:58;;;;;;;14.43;8.23;;;;;;;;;;4918054;29;20236;-74
2021/12/14 13:46:05;;;;;;;15.20;7.77;;;;;;;;;;4917644;29;20197;-74
2021/12/14 13:49:09;;;;;;;15.63;8.60;;;;;;;;;;4937890;29;20196;-74
2021/12/14 13:52:16;;;;;;;12.67;7.70;;;;;;;;;;4932324;29;20227;-74
2021/12/14 13:55:23;;;;;;;13.37;8.60;;;;;;;;;;4914824;29;20192;-74
2021/12/14 13:58:29;;;;;;;34.50;12.93;;;;;;;;;;4935928;29;20530;-74
2021/12/14 14:01:41;;;;;;;34.30;17.57;;;;;;;;;;4936767;29;20241;-74
2021/12/14 14:04:46;;;;;;;40.67;16.07;;;;;;;;;;4936016;29;20565;-74
2021/12/14 14:07:55;;;;;;;18.67;11.97;;;;;;;;;;4936004;29;20192;-74
2021/12/14 14:11:28;;;;;;;17.50;11.27;;;;;;;;;;4936697;29;20262;-74
2021/12/14 14:14:35;;;;;;;16.50;8.97;;;;;;;;;;4936757;29;20195;-74
2021/12/14 14:17:47;;;;;;;16.73;9.47;;;;;;;;;;4935598;29;20185;-74
2021/12/14 14:20:51;;;;;;;16.80;9.07;;;;;;;;;;4936519;29;20228;-74
2021/12/14 14:23:57;;;;;;;23.57;10.67;;;;;;;;;;4936537;29;20220;-74
2021/12/14 14:27:04;;;;;;;17.77;10.90;;;;;;;;;;4924599;29;20192;-73
2021/12/14 14:30:20;;;;;;;16.50;8.73;;;;;;;;;;4936420;29;20551;-74
2021/12/14 14:33:50;;;;;;;24.67;14.30;;;;;;;;;;4936238;29;20204;-74
2021/12/14 14:37:27;;;;;;;25.57;12.03;;;;;;;;;;4941881;29;20188;-74
2021/12/14 14:40:35;;;;;;;19.30;11.13;;;;;;;;;;4935704;29;20187;-75
2021/12/14 14:43:58;;;;;;;22.43;12.93;;;;;;;;;;4924475;29;20216;-74
2021/12/14 14:47:26;;;;;;;26.80;12.53;;;;;;;;;;4936198;29;20184;-74
2021/12/14 14:50:33;;;;;;;32.00;14.10;;;;;;;;;;4924132;29;20196;-74
2021/12/14 14:53:40;;;;;;;30.47;17.20;;;;;;;;;;4935137;29;20188;-74
2021/12/14 14:56:44;;;;;;;269.03;97.23;;;;;;;;;;4935777;29;20200;-75
2021/12/14 14:59:54;;;;;;;137.47;64.40;;;;;;;;;;4932024;29;20191;-75
2021/12/14 15:03:01;;;;;;;55.37;29.57;;;;;;;;;;4931765;29;20223;-74
2021/12/14 15:06:08;;;;;;;76.90;39.17;;;;;;;;;;4932476;29;20195;-75
2021/12/14 15:09:20;;;;;;;213.33;84.97;;;;;;;;;;4932055;29;20184;-75
2021/12/14 15:12:24;;;;;;;70.93;33.27;;;;;;;;;;4931569;29;20728;-75
2021/12/14 15:15:28;;;;;;;41.77;23.13;;;;;;;;;;4932690;29;20192;-75
2021/12/14 15:19:09;;;;;;;29.07;15.07;;;;;;;;;;4932262;29;20188;-75
2021/12/14 15:22:31;;;;;;;44.17;19.20;;;;;;;;;;4925831;29;20224;-74
2021/12/14 15:25:35;;;;;;;69.33;25.37;;;;;;;;;;4913227;29;20201;-74
2021/12/14 15:28:40;;;;;;;38.40;16.30;;;;;;;;;;4940204;29;20680;-75
2021/12/14 15:31:47;;;;;;;36.90;17.60;;;;;;;;;;4922109;29;20239;-74
2021/12/14 15:34:51;;;;;;;42.53;15.70;;;;;;;;;;4923185;29;20569;-75
2021/12/14 15:38:17;;;;;;;42.70;14.30;;;;;;;;;;4923798;29;20909;-75
2021/12/14 15:41:37;;;;;;;26.53;12.73;;;;;;;;;;4931270;29;20235;-75
2021/12/14 15:44:41;;;;;;;41.83;13.97;;;;;;;;;;4931598;29;20219;-75
2021/12/14 15:48:08;;;;;;;67.33;16.93;;;;;;;;;;4917254;29;20199;-75
2021/12/14 15:51:14;;;;;;;41.47;18.23;;;;;;;;;;4929804;29;20236;-75
2021/12/14 15:54:28;;;;;;;87.77;18.10;;;;;;;;;;4922167;29;20210;-75
2021/12/14 15:57:33;;;;;;;33.40;19.43;;;;;;;;;;4916319;29;20212;-74
2021/12/14 16:00:39;;;;;;;25.83;16.07;;;;;;;;;;4915709;29;20216;-75
2021/12/14 16:03:43;;;;;;;71.77;14.40;;;;;;;;;;4916163;29;20238;-74
2021/12/14 16:06:50;;;;;;;88.40;14.57;;;;;;;;;;4926434;29;20562;-74
2021/12/14 16:10:05;;;;;;;110.87;13.67;;;;;;;;;;4928053;29;20205;-74
2021/12/14 16:16:34;;;;;;;21.50;12.53;;;;;;;;;;4919097;29;20200;-74
2021/12/14 16:19:39;;;;;;;26.57;13.40;;;;;;;;;;4919114;29;20553;-74
2021/12/14 16:22:43;;;;;;;24.87;13.83;;;;;;;;;;4919668;29;20236;-74
2021/12/14 16:26:04;;;;;;;28.50;14.23;;;;;;;;;;4918970;29;20196;-75
2021/12/14 16:29:09;;;;;;;31.33;18.53;;;;;;;;;;4929881;29;20201;-75
2021/12/14 16:32:17;;;;;;;34.30;13.73;;;;;;;;;;4918500;29;20243;-75
2021/12/14 16:35:21;;;;;;;86.27;14.37;;;;;;;;;;4918524;29;20662;-74
2021/12/14 16:38:37;;;;;;;48.00;13.43;;;;;;;;;;4929678;29;20554;-74
2021/12/14 16:42:02;;;;;;;49.90;14.27;;;;;;;;;;4919459;29;20236;-74
2021/12/14 16:45:09;;;;;;;21.23;12.23;;;;;;;;;;4919259;29;20230;-74
2021/12/14 16:48:13;;;;;;;20.43;12.13;;;;;;;;;;4919039;29;20197;-75
2021/12/14 16:51:17;;;;;;;23.13;12.87;;;;;;;;;;4919052;29;20235;-75
2021/12/14 16:54:24;;;;;;;24.20;12.73;;;;;;;;;;4919171;29;20211;-74
2021/12/14 16:57:31;;;;;;;72.57;15.50;;;;;;;;;;4918421;29;20200;-75
2021/12/14 17:00:48;;;;;;;24.40;13.60;;;;;;;;;;4918468;29;20209;-74
2021/12/14 17:03:57;;;;;;;26.80;16.07;;;;;;;;;;4918518;29;20571;-74
2021/12/14 17:07:05;;;;;;;35.43;15.67;;;;;;;;;;4918774;29;20209;-74
2021/12/14 17:10:20;;;;;;;43.53;14.80;;;;;;;;;;4918983;29;20196;-75
2021/12/14 17:13:30;;;;;;;20.80;12.13;;;;;;;;;;4918850;29;20564;-74
2021/12/14 17:16:41;;;;;;;29.57;13.27;;;;;;;;;;4919147;29;20193;-74
2021/12/14 17:19:49;;;;;;;32.30;14.20;;;;;;;;;;4918795;29;20208;-74
2021/12/14 17:22:53;;;;;;;124.50;18.17;;;;;;;;;;4918184;29;20206;-74
2021/12/14 17:26:13;;;;;;;90.90;17.87;;;;;;;;;;4918682;29;20543;-74
2021/12/14 17:29:25;;;;;;;26.53;15.33;;;;;;;;;;4918533;29;20189;-74
2021/12/14 17:32:31;;;;;;;24.87;14.67;;;;;;;;;;4928247;29;20243;-74
2021/12/14 17:35:38;;;;;;;93.87;16.20;;;;;;;;;;4918603;29;20551;-74
2021/12/14 17:38:44;;;;;;;33.80;16.93;;;;;;;;;;4936245;29;20184;-74
2021/12/14 17:41:51;;;;;;;44.87;20.03;;;;;;;;;;4934521;29;20224;-75
2021/12/14 17:45:02;;;;;;;75.40;18.23;;;;;;;;;;4918232;29;20232;-73
2021/12/14 17:48:08;;;;;;;80.87;17.83;;;;;;;;;;4917490;29;20194;-74
2021/12/14 17:51:13;;;;;;;27.63;18.20;;;;;;;;;;4918024;29;20237;-74
2021/12/14 17:54:32;;;;;;;151.60;25.30;;;;;;;;;;4923757;29;20658;-74
2021/12/14 17:57:41;;;;;;;47.63;23.43;;;;;;;;;;4936156;29;20195;-74
2021/12/14 18:00:51;;;;;;;103.37;28.43;;;;;;;;;;4936916;29;20232;-75
2021/12/14 18:03:59;;;;;;;198.70;28.73;;;;;;;;;;4917293;29;20220;-74
2021/12/14 18:07:06;;;;;;;245.10;41.70;;;;;;;;;;4918220;29;20211;-74
2021/12/14 18:10:12;;;;;;;45.53;18.33;;;;;;;;;;4918056;29;20555;-74
2021/12/14 18:13:24;;;;;;;143.10;22.83;;;;;;;;;;4923988;29;20207;-75
2021/12/14 18:16:50;;;;;;;160.83;25.60;;;;;;;;;;4919917;29;20211;-74
2021/12/14 18:19:54;;;;;;;62.03;17.70;;;;;;;;;;4913780;29;20196;-74
2021/12/14 18:22:59;;;;;;;115.43;44.10;;;;;;;;;;4913575;29;20194;-75
2021/12/14 18:26:10;;;;;;;71.93;26.47;;;;;;;;;;4914122;29;20196;-75
2021/12/14 18:29:18;;;;;;;141.60;24.40;;;;;;;;;;4915283;29;20206;-76
2021/12/14 18:32:28;;;;;;;30.40;15.60;;;;;;;;;;4932658;29;20250;-76
2021/12/14 18:35:33;;;;;;;21.80;13.40;;;;;;;;;;4912735;29;20207;-75
2021/12/14 18:38:39;;;;;;;117.47;15.43;;;;;;;;;;4921342;29;20221;-76
2021/12/14 18:41:46;;;;;;;32.27;13.43;;;;;;;;;;4915546;29;20231;-75
2021/12/14 18:45:08;;;;;;;68.83;15.87;;;;;;;;;;4913775;29;20224;-75
2021/12/14 18:51:45;;;;;;;21.73;12.33;;;;;;;;;;4913924;29;20729;-75
2021/12/14 18:55:03;;;;;;;99.53;15.73;;;;;;;;;;4913813;29;20604;-75
2021/12/14 18:58:15;;;;;;;59.23;13.17;;;;;;;;;;4916409;29;20196;-75
2021/12/14 19:01:31;;;;;;;101.00;13.33;;;;;;;;;;4932905;29;20233;-76
2021/12/14 19:04:41;;;;;;;35.33;14.30;;;;;;;;;;4932441;29;20708;-74
2021/12/14 19:07:54;;;;;;;33.90;13.30;;;;;;;;;;4918016;29;20193;-74
2021/12/14 19:11:05;;;;;;;25.13;13.63;;;;;;;;;;4931934;29;20789;-74
2021/12/14 19:14:12;;;;;;;57.63;15.33;;;;;;;;;;4932706;29;20215;-75
2021/12/14 19:17:18;;;;;;;46.77;14.83;;;;;;;;;;4922943;29;21228;-75
2021/12/14 19:20:40;;;;;;;24.17;13.17;;;;;;;;;;4920710;29;20685;-75
2021/12/14 19:23:49;;;;;;;20.73;13.13;;;;;;;;;;4913016;29;20601;-75
2021/12/14 19:26:58;;;;;;;20.23;13.13;;;;;;;;;;4913244;29;20196;-75